createdAt,value
2022-10-22T00:00:01.599Z,98370.25
2022-10-22T00:02:28.245Z,98365.94
2022-10-22T00:04:56.964Z,98364.09
2022-10-22T00:09:52.437Z,98365.09
2022-10-22T00:12:19.348Z,98356.28
2022-10-22T00:14:46.052Z,98369.41
2022-10-22T00:17:13.032Z,98352.59
2022-10-22T00:19:40.028Z,98357.16
2022-10-22T00:22:08.513Z,98358.81
2022-10-22T00:24:37.139Z,98331.03
2022-10-22T00:27:04.291Z,98326.47
2022-10-22T00:29:31.491Z,98336.78
2022-10-22T00:31:58.574Z,98338.63
2022-10-22T00:34:26.776Z,98349.22
2022-10-22T00:36:53.695Z,98352.69
2022-10-22T00:39:22.572Z,98351.97
2022-10-22T00:41:51.672Z,98349.22
2022-10-22T00:44:55.952Z,98353.66
2022-10-22T00:47:24.315Z,98329.72
2022-10-22T00:49:53.761Z,98352.81
2022-10-22T00:52:21.361Z,98346.66
2022-10-22T00:54:48.070Z,98357.25
2022-10-22T00:57:16.769Z,98347.66
2022-10-22T00:59:43.422Z,98350.31
2022-10-22T01:02:09.992Z,98343.19
2022-10-22T01:04:36.581Z,98347.66
2022-10-22T01:07:03.657Z,98300.78
2022-10-22T01:09:30.079Z,98345.00
2022-10-22T01:12:02.535Z,98340.53
2022-10-22T01:14:45.584Z,98337.06
2022-10-22T01:17:24.965Z,98335.38
2022-10-22T01:19:51.677Z,98334.50
2022-10-22T01:22:37.889Z,98338.97
2022-10-22T01:25:32.748Z,98338.97
2022-10-22T01:30:19.346Z,98318.44
2022-10-22T01:32:56.849Z,98330.44
2022-10-22T01:35:28.716Z,98342.72
2022-10-22T01:38:01.920Z,98339.22
2022-10-22T01:40:29.507Z,98344.50
2022-10-22T01:43:01.515Z,98341.84
2022-10-22T01:45:39.815Z,98337.44
2022-10-22T01:48:13.366Z,98332.50
2022-10-22T01:50:45.917Z,98337.56
2022-10-22T01:53:41.743Z,98334.91
2022-10-22T01:56:54.495Z,98333.22
2022-10-22T01:59:58.967Z,98331.53
2022-10-22T02:02:56.393Z,98325.38
2022-10-22T02:05:43.347Z,98319.38
2022-10-22T02:08:15.908Z,98319.38
2022-10-22T02:10:44.768Z,98307.72
2022-10-22T02:13:19.409Z,98320.34
2022-10-22T02:15:48.983Z,98329.97
2022-10-22T02:18:18.085Z,98323.13
2022-10-22T02:20:44.688Z,98322.84
2022-10-22T02:23:12.013Z,98317.69
2022-10-22T02:25:41.780Z,98320.34
2022-10-22T02:28:35.233Z,98327.44
2022-10-22T02:31:11.251Z,98325.78
2022-10-22T02:33:47.275Z,98324.22
2022-10-22T02:36:15.854Z,98325.88
2022-10-22T02:38:43.157Z,98327.56
2022-10-22T02:41:10.194Z,98330.34
2022-10-22T02:43:49.921Z,98338.28
2022-10-22T02:46:16.789Z,98337.44
2022-10-22T02:48:43.272Z,98326.84
2022-10-22T02:51:09.805Z,98323.34
2022-10-22T02:53:36.362Z,98322.53
2022-10-22T02:56:02.987Z,98320.97
2022-10-22T02:58:29.471Z,98319.03
2022-10-22T03:00:56.121Z,98307.00
2022-10-22T03:03:22.745Z,98314.69
2022-10-22T03:05:50.959Z,98311.34
2022-10-22T03:08:17.702Z,98318.31
2022-10-22T03:10:44.357Z,98328.03
2022-10-22T03:13:10.891Z,98325.41
2022-10-22T03:15:37.761Z,98326.25
2022-10-22T03:18:04.267Z,98326.34
2022-10-22T03:20:30.786Z,98325.41
2022-10-22T03:22:57.696Z,98324.56
2022-10-22T03:25:27.133Z,98320.09
2022-10-22T03:28:01.348Z,98318.41
2022-10-22T03:30:27.869Z,98319.16
2022-10-22T03:32:54.384Z,98328.91
2022-10-22T03:35:21.152Z,98328.03
2022-10-22T03:37:47.826Z,98310.38
2022-10-22T03:40:14.751Z,98328.91
2022-10-22T03:42:42.111Z,98324.81
2022-10-22T03:45:09.244Z,98330.69
2022-10-22T03:47:37.344Z,98336.00
2022-10-22T03:50:06.264Z,98339.50
2022-10-22T03:52:37.729Z,98337.69
2022-10-22T03:55:05.781Z,98317.22
2022-10-22T03:57:32.408Z,98314.69
2022-10-22T04:02:15.520Z,98310.97
2022-10-22T04:04:42.127Z,98321.56
2022-10-22T04:07:08.833Z,98317.22
2022-10-22T04:09:35.654Z,98318.91
2022-10-22T04:12:02.389Z,98303.13
2022-10-22T04:14:28.945Z,98306.75
2022-10-22T04:16:55.500Z,98293.50
2022-10-22T04:19:22.123Z,98293.91
2022-10-22T04:21:48.767Z,98298.94
2022-10-22T04:24:15.484Z,98313.13
2022-10-22T04:26:42.439Z,98310.47
2022-10-22T04:29:11.987Z,98311.47
2022-10-22T04:31:41.861Z,98308.81
2022-10-22T04:34:08.406Z,98311.47
2022-10-22T04:36:34.962Z,98307.13
2022-10-22T04:39:02.040Z,98308.91
2022-10-22T04:41:31.890Z,98294.88
2022-10-22T04:43:59.314Z,98295.69
2022-10-22T04:46:28.422Z,98296.66
2022-10-22T04:48:55.035Z,98303.88
2022-10-22T04:51:24.222Z,98309.06
2022-10-22T04:53:51.061Z,98314.34
2022-10-22T04:56:23.011Z,98307.38
2022-10-22T04:58:51.681Z,98305.59
2022-10-22T05:01:27.012Z,98312.66
2022-10-22T05:03:55.792Z,98317.13
2022-10-22T05:06:23.278Z,98309.19
2022-10-22T05:08:55.757Z,98322.41
2022-10-22T05:11:34.885Z,98309.28
2022-10-22T05:14:04.424Z,98308.31
2022-10-22T05:16:32.748Z,98306.63
2022-10-22T05:19:00.841Z,98300.50
2022-10-22T05:21:28.285Z,98288.13
2022-10-22T05:23:56.074Z,98295.22
2022-10-22T05:26:24.977Z,98284.63
2022-10-22T05:28:52.276Z,98278.53
2022-10-22T05:31:19.443Z,98272.50
2022-10-22T05:33:46.765Z,98275.16
2022-10-22T05:36:19.493Z,98296.19
2022-10-22T05:38:46.075Z,98304.97
2022-10-22T05:41:17.651Z,98308.59
2022-10-22T05:43:45.134Z,98318.31
2022-10-22T05:46:22.191Z,98325.41
2022-10-22T05:48:54.657Z,98331.53
2022-10-22T05:51:22.696Z,98336.00
2022-10-22T05:53:53.409Z,98322.28
2022-10-22T05:56:20.895Z,98327.94
2022-10-22T05:58:47.706Z,98322.66
2022-10-22T06:01:23.783Z,98316.53
2022-10-22T06:03:54.115Z,98314.84
2022-10-22T06:06:22.290Z,98313.03
2022-10-22T06:08:51.088Z,98321.81
2022-10-22T06:11:19.857Z,98314.84
2022-10-22T06:13:47.172Z,98335.19
2022-10-22T06:16:14.689Z,98339.47
2022-10-22T06:18:41.269Z,98342.25
2022-10-22T06:21:13.509Z,98342.25
2022-10-22T06:23:40.299Z,98336.13
2022-10-22T06:26:07.915Z,98333.50
2022-10-22T06:28:35.198Z,98330.72
2022-10-22T06:31:02.620Z,98322.91
2022-10-22T06:33:31.197Z,98325.56
2022-10-22T06:36:07.590Z,98338.78
2022-10-22T06:38:35.067Z,98348.59
2022-10-22T06:41:06.479Z,98364.34
2022-10-22T06:43:33.056Z,98377.59
2022-10-22T06:46:05.221Z,98382.03
2022-10-22T06:48:31.724Z,98388.16
2022-10-22T06:51:02.816Z,98388.16
2022-10-22T06:53:30.224Z,98374.81
2022-10-22T06:55:57.331Z,98370.03
2022-10-22T06:58:23.936Z,98385.53
2022-10-22T07:00:50.452Z,98394.34
2022-10-22T07:03:17.076Z,98397.84
2022-10-22T07:05:43.556Z,98384.59
2022-10-22T07:08:10.250Z,98388.09
2022-10-22T07:10:36.812Z,98387.13
2022-10-22T07:13:03.344Z,98384.47
2022-10-22T07:15:29.852Z,98400.34
2022-10-22T07:17:56.588Z,98384.47
2022-10-22T07:20:23.088Z,98372.94
2022-10-22T07:22:49.694Z,98377.38
2022-10-22T07:25:16.339Z,98375.44
2022-10-22T07:27:43.247Z,98376.44
2022-10-22T07:30:10.184Z,98378.94
2022-10-22T07:32:37.174Z,98379.78
2022-10-22T07:35:04.585Z,98364.47
2022-10-22T07:37:31.210Z,98388.56
2022-10-22T07:40:01.332Z,98394.69
2022-10-22T07:45:00.941Z,98393.75
2022-10-22T07:47:27.432Z,98393.75
2022-10-22T07:49:53.968Z,98384.97
2022-10-22T07:52:20.593Z,98355.72
2022-10-22T07:54:47.184Z,98369.94
2022-10-22T07:57:13.668Z,98374.25
2022-10-22T07:59:40.224Z,98364.50
2022-10-22T08:02:07.133Z,98351.28
2022-10-22T08:04:33.714Z,98351.16
2022-10-22T08:07:00.939Z,98344.06
2022-10-22T08:09:27.593Z,98344.88
2022-10-22T08:11:54.701Z,98345.16
2022-10-22T08:14:21.369Z,98357.03
2022-10-22T08:16:47.975Z,98352.59
2022-10-22T08:19:18.713Z,98348.53
2022-10-22T08:21:46.111Z,98293.66
2022-10-22T08:24:13.554Z,98362.94
2022-10-22T08:26:40.736Z,98369.91
2022-10-22T08:29:07.768Z,98383.00
2022-10-22T08:31:34.859Z,98389.16
2022-10-22T08:34:01.462Z,98376.28
2022-10-22T08:36:28.172Z,98378.81
2022-10-22T08:38:54.774Z,98396.03
2022-10-22T08:41:23.418Z,98403.13
2022-10-22T08:44:08.720Z,98406.63
2022-10-22T08:46:52.486Z,98404.19
2022-10-22T08:49:24.617Z,98397.47
2022-10-22T08:51:51.525Z,98415.53
2022-10-22T08:54:46.065Z,98422.97
2022-10-22T08:57:52.201Z,98422.38
2022-10-22T09:00:23.148Z,98415.59
2022-10-22T09:02:52.520Z,98416.66
2022-10-22T09:05:37.825Z,98413.31
2022-10-22T09:08:08.650Z,98412.72
2022-10-22T09:10:38.257Z,98412.84
2022-10-22T09:13:04.879Z,98406.81
2022-10-22T09:15:31.624Z,98394.53
2022-10-22T09:18:23.303Z,98384.19
2022-10-22T09:20:56.426Z,98379.88
2022-10-22T09:23:28.815Z,98365.91
2022-10-22T09:25:57.801Z,98360.16
2022-10-22T09:28:24.409Z,98373.72
2022-10-22T09:30:51.473Z,98373.72
2022-10-22T09:33:27.037Z,98386.97
2022-10-22T09:35:58.085Z,98395.75
2022-10-22T09:38:41.296Z,98404.66
2022-10-22T09:41:09.220Z,98388.03
2022-10-22T09:43:36.136Z,98406.44
2022-10-22T09:46:06.364Z,98413.53
2022-10-22T09:48:40.116Z,98400.44
2022-10-22T09:51:06.639Z,98404.78
2022-10-22T09:53:41.561Z,98407.41
2022-10-22T09:56:23.953Z,98405.81
2022-10-22T09:58:51.286Z,98391.91
2022-10-22T10:01:23.804Z,98389.72
2022-10-22T10:03:50.407Z,98402.69
2022-10-22T10:06:22.446Z,98409.06
2022-10-22T10:08:49.516Z,98400.41
2022-10-22T10:11:34.232Z,98399.56
2022-10-22T10:14:54.574Z,98409.31
2022-10-22T10:17:41.465Z,98404.97
2022-10-22T10:20:15.882Z,98405.94
2022-10-22T10:23:01.168Z,98402.56
2022-10-22T10:26:01.143Z,98399.81
2022-10-22T10:28:30.392Z,98401.59
2022-10-22T10:30:59.870Z,98392.94
2022-10-22T10:33:35.369Z,98399.91
2022-10-22T10:36:12.836Z,98401.72
2022-10-22T10:38:53.665Z,98400.03
2022-10-22T10:41:29.792Z,98406.03
2022-10-22T10:44:05.624Z,98402.25
2022-10-22T10:46:56.676Z,98409.75
2022-10-22T10:49:26.334Z,98405.91
2022-10-22T10:52:18.966Z,98408.13
2022-10-22T10:55:45.819Z,98404.91
2022-10-22T10:58:30.212Z,98406.72
2022-10-22T11:01:03.788Z,98401.25
2022-10-22T11:03:48.714Z,98394.00
2022-10-22T11:06:23.010Z,98391.06
2022-10-22T11:09:03.061Z,98390.75
2022-10-22T11:11:29.669Z,98390.22
2022-10-22T11:14:27.909Z,98385.50
2022-10-22T11:17:15.962Z,98393.97
2022-10-22T11:19:53.784Z,98381.28
2022-10-22T11:23:18.025Z,98379.94
2022-10-22T11:25:47.741Z,98390.06
2022-10-22T11:28:21.142Z,98379.81
2022-10-22T11:30:56.462Z,98382.69
2022-10-22T11:33:28.753Z,98377.53
2022-10-22T11:35:58.646Z,98369.81
2022-10-22T11:38:26.437Z,98373.47
2022-10-22T11:41:02.469Z,98364.81
2022-10-22T11:43:32.801Z,98369.06
2022-10-22T11:46:24.611Z,98361.06
2022-10-22T11:49:17.069Z,98362.41
2022-10-22T11:51:44.534Z,98359.59
2022-10-22T11:54:42.680Z,98347.13
2022-10-22T11:57:15.125Z,98347.94
2022-10-22T11:59:49.686Z,98343.69
2022-10-22T12:02:28.221Z,98348.25
2022-10-22T12:05:22.324Z,98295.56
2022-10-22T12:08:14.853Z,98356.03
2022-10-22T12:11:10.559Z,98358.19
2022-10-22T12:13:58.621Z,98351.75
2022-10-22T12:16:37.760Z,98348.88
2022-10-22T12:19:24.380Z,98354.56
2022-10-22T12:22:19.360Z,98354.31
2022-10-22T12:24:49.494Z,98355.75
2022-10-22T12:27:28.252Z,98348.56
2022-10-22T12:29:59.377Z,98350.00
2022-10-22T12:32:37.690Z,98356.78
2022-10-22T12:35:11.673Z,98361.81
2022-10-22T12:37:38.683Z,98362.41
2022-10-22T12:40:24.116Z,98357.91
2022-10-22T12:43:12.418Z,98348.66
2022-10-22T12:45:40.016Z,98341.56
2022-10-22T12:48:14.301Z,98337.72
2022-10-22T12:50:43.771Z,98343.63
2022-10-22T12:53:29.661Z,98348.69
2022-10-22T12:56:01.268Z,98331.28
2022-10-22T12:58:33.323Z,98347.34
2022-10-22T13:01:03.398Z,98343.75
2022-10-22T13:03:33.524Z,98355.06
2022-10-22T13:06:34.598Z,98350.63
2022-10-22T13:09:04.023Z,98351.34
2022-10-22T13:11:48.206Z,98351.34
2022-10-22T13:14:18.177Z,98348.69
2022-10-22T13:17:08.404Z,98353.88
2022-10-22T13:19:55.272Z,98355.44
2022-10-22T13:22:29.764Z,98354.47
2022-10-22T13:24:58.958Z,98341.84
2022-10-22T13:27:28.220Z,98350.41
2022-10-22T13:29:56.477Z,98345.72
2022-10-22T13:32:30.590Z,98348.97
2022-10-22T13:35:00.761Z,98338.50
2022-10-22T13:37:30.723Z,98335.38
2022-10-22T13:39:57.300Z,98339.69
2022-10-22T13:42:23.877Z,98310.47
2022-10-22T13:44:50.730Z,98328.75
2022-10-22T13:47:24.003Z,98317.34
2022-10-22T13:49:50.850Z,98318.66
2022-10-22T13:52:44.427Z,98316.88
2022-10-22T13:55:30.665Z,98314.09
2022-10-22T13:58:11.145Z,98312.31
2022-10-22T14:00:39.722Z,98299.44
2022-10-22T14:03:11.153Z,98294.50
2022-10-22T14:05:37.935Z,98303.38
2022-10-22T14:08:11.897Z,98308.66
2022-10-22T14:10:38.949Z,98313.97
2022-10-22T14:13:07.812Z,98307.72
2022-10-22T14:15:34.691Z,98294.50
2022-10-22T14:18:01.578Z,98317.34
2022-10-22T14:20:30.544Z,98326.22
2022-10-22T14:23:11.177Z,98323.47
2022-10-22T14:25:37.757Z,98329.59
2022-10-22T14:28:04.388Z,98322.63
2022-10-22T14:30:32.805Z,98326.00
2022-10-22T14:32:59.384Z,98329.47
2022-10-22T14:35:26.139Z,98333.09
2022-10-22T14:37:52.768Z,98331.28
2022-10-22T14:40:20.854Z,98331.28
2022-10-22T14:42:48.837Z,98338.28
2022-10-22T14:45:23.016Z,98343.56
2022-10-22T14:47:51.161Z,98348.84
2022-10-22T14:50:18.745Z,98344.41
2022-10-22T14:52:45.553Z,98341.88
2022-10-22T14:55:14.532Z,98338.28
2022-10-22T14:57:41.500Z,98340.06
2022-10-22T15:00:18.761Z,98341.75
2022-10-22T15:02:48.328Z,98343.56
2022-10-22T15:05:15.795Z,98343.56
2022-10-22T15:07:42.681Z,98355.13
2022-10-22T15:10:09.980Z,98349.69
2022-10-22T15:12:36.771Z,98331.19
2022-10-22T15:15:04.100Z,98354.97
2022-10-22T15:17:31.004Z,98333.69
2022-10-22T15:20:00.472Z,98354.03
2022-10-22T15:22:28.502Z,98354.25
2022-10-22T15:24:55.119Z,98353.16
2022-10-22T15:27:21.674Z,98351.38
2022-10-22T15:29:48.244Z,98348.72
2022-10-22T15:32:14.921Z,98344.28
2022-10-22T15:34:41.395Z,98343.44
2022-10-22T15:37:11.361Z,98343.44
2022-10-22T15:39:42.247Z,98345.13
2022-10-22T15:42:09.820Z,98340.66
2022-10-22T15:44:36.692Z,98346.91
2022-10-22T15:47:04.910Z,98355.72
2022-10-22T15:49:33.486Z,98353.91
2022-10-22T15:52:00.140Z,98356.53
2022-10-22T15:54:28.610Z,98356.53
2022-10-22T15:56:56.532Z,98355.59
2022-10-22T15:59:23.105Z,98362.59
2022-10-22T16:01:50.161Z,98367.88
2022-10-22T16:04:17.164Z,98364.34
2022-10-22T16:06:47.310Z,98374.88
2022-10-22T16:09:17.185Z,98375.84
2022-10-22T16:11:44.925Z,98371.38
2022-10-22T16:14:12.827Z,98366.94
2022-10-22T16:16:43.375Z,98371.38
2022-10-22T16:19:12.768Z,98374.88
2022-10-22T16:21:39.794Z,98376.66
2022-10-22T16:24:07.871Z,98386.28
2022-10-22T16:26:35.738Z,98387.25
2022-10-22T16:29:02.840Z,98399.53
2022-10-22T16:31:29.336Z,98391.56
2022-10-22T16:33:56.219Z,98408.28
2022-10-22T16:36:22.804Z,98399.53
2022-10-22T16:38:49.696Z,98396.88
2022-10-22T16:41:17.897Z,98410.94
2022-10-22T16:43:48.324Z,98410.09
2022-10-22T16:46:20.058Z,98412.63
2022-10-22T16:48:50.817Z,98416.22
2022-10-22T16:51:21.107Z,98415.25
2022-10-22T16:53:48.045Z,98418.78
2022-10-22T16:56:16.238Z,98416.97
2022-10-22T16:58:50.888Z,98411.78
2022-10-22T17:01:19.488Z,98409.59
2022-10-22T17:03:46.563Z,98422.13
2022-10-22T17:06:14.200Z,98422.97
2022-10-22T17:08:41.834Z,98428.97
2022-10-22T17:11:17.183Z,98426.47
2022-10-22T17:13:45.910Z,98428.97
2022-10-22T17:16:15.497Z,98430.66
2022-10-22T17:21:17.447Z,98426.22
2022-10-22T17:23:44.324Z,98423.59
2022-10-22T17:26:20.925Z,98425.16
2022-10-22T17:28:49.013Z,98423.47
2022-10-22T17:31:16.003Z,98423.34
2022-10-22T17:33:43.208Z,98426.72
2022-10-22T17:36:12.665Z,98427.53
2022-10-22T17:38:40.969Z,98431.88
2022-10-22T17:41:13.807Z,98440.69
2022-10-22T17:43:41.484Z,98441.50
2022-10-22T17:46:11.185Z,98440.69
2022-10-22T17:48:37.821Z,98438.03
2022-10-22T17:51:11.687Z,98435.38
2022-10-22T17:53:46.019Z,98435.38
2022-10-22T17:56:17.376Z,98445.13
2022-10-22T17:58:44.272Z,98454.75
2022-10-22T18:01:21.841Z,98450.41
2022-10-22T18:03:49.115Z,98431.75
2022-10-22T18:06:15.679Z,98450.41
2022-10-22T18:08:42.455Z,98450.41
2022-10-22T18:11:11.209Z,98458.34
2022-10-22T18:13:38.232Z,98464.50
2022-10-22T18:16:05.925Z,98467.16
2022-10-22T18:18:34.707Z,98469.78
2022-10-22T18:21:01.790Z,98459.44
2022-10-22T18:23:28.652Z,98463.50
2022-10-22T18:25:55.800Z,98464.38
2022-10-22T18:28:22.535Z,98466.16
2022-10-22T18:30:49.248Z,98466.41
2022-10-22T18:33:17.980Z,98466.16
2022-10-22T18:35:46.416Z,98468.81
2022-10-22T18:38:13.427Z,98469.66
2022-10-22T18:40:46.816Z,98467.84
2022-10-22T18:43:13.680Z,98471.47
2022-10-22T18:45:44.495Z,98467.97
2022-10-22T18:48:14.459Z,98467.97
2022-10-22T18:50:41.587Z,98456.78
2022-10-22T18:53:08.796Z,98476.75
2022-10-22T18:55:39.654Z,98485.56
2022-10-22T18:58:06.945Z,98473.63
2022-10-22T19:00:35.525Z,98488.06
2022-10-22T19:03:03.288Z,98486.03
2022-10-22T19:05:29.975Z,98485.81
2022-10-22T19:07:56.670Z,98491.94
2022-10-22T19:12:35.373Z,98506.50
2022-10-22T19:15:01.988Z,98496.63
2022-10-22T19:17:28.509Z,98498.31
2022-10-22T19:19:55.052Z,98495.78
2022-10-22T19:22:21.609Z,98514.94
2022-10-22T19:24:49.840Z,98503.38
2022-10-22T19:27:17.195Z,98512.03
2022-10-22T19:29:44.966Z,98519.84
2022-10-22T19:32:14.364Z,98517.09
2022-10-22T19:34:41.206Z,98510.13
2022-10-22T19:37:08.031Z,98511.91
2022-10-22T19:39:34.926Z,98503.47
2022-10-22T19:42:01.662Z,98520.34
2022-10-22T19:44:28.309Z,98526.50
2022-10-22T19:46:54.941Z,98532.66
2022-10-22T19:49:23.003Z,98537.81
2022-10-22T19:51:49.937Z,98548.41
2022-10-22T19:54:18.703Z,98552.75
2022-10-22T19:56:46.712Z,98550.81
2022-10-22T19:59:14.802Z,98541.16
2022-10-22T20:01:42.396Z,98557.78
2022-10-22T20:04:16.303Z,98568.25
2022-10-22T20:06:43.524Z,98571.78
2022-10-22T20:09:11.119Z,98562.00
2022-10-22T20:11:41.401Z,98567.44
2022-10-22T20:14:07.897Z,98568.03
2022-10-22T20:16:36.022Z,98569.72
2022-10-22T20:19:05.539Z,98568.03
2022-10-22T20:21:33.360Z,98576.59
2022-10-22T20:24:00.211Z,98573.94
2022-10-22T20:26:28.530Z,98581.88
2022-10-22T20:28:56.389Z,98581.88
2022-10-22T20:31:26.963Z,98571.28
2022-10-22T20:33:56.774Z,98567.78
2022-10-22T20:36:24.192Z,98568.63
2022-10-22T20:38:51.869Z,98573.94
2022-10-22T20:41:23.131Z,98561.41
2022-10-22T20:43:51.265Z,98583.59
2022-10-22T20:46:20.780Z,98588.88
2022-10-22T20:48:51.138Z,98594.19
2022-10-22T20:51:17.824Z,98595.00
2022-10-22T20:53:44.342Z,98590.53
2022-10-22T20:56:11.547Z,98573.94
2022-10-22T20:58:38.824Z,98601.50
2022-10-22T21:01:10.460Z,98599.47
2022-10-22T21:03:37.842Z,98597.78
2022-10-22T21:06:05.840Z,98604.78
2022-10-22T21:08:32.705Z,98608.38
2022-10-22T21:10:59.299Z,98612.72
2022-10-22T21:13:25.968Z,98605.72
2022-10-22T21:15:52.471Z,98607.50
2022-10-22T21:18:19.094Z,98609.22
2022-10-22T21:20:45.571Z,98602.22
2022-10-22T21:23:15.128Z,98611.84
2022-10-22T21:25:43.383Z,98609.22
2022-10-22T21:28:10.942Z,98617.28
2022-10-22T21:30:44.642Z,98618.97
2022-10-22T21:33:12.468Z,98618.13
2022-10-22T21:35:39.060Z,98612.81
2022-10-22T21:38:07.783Z,98616.44
2022-10-22T21:40:37.370Z,98618.25
2022-10-22T21:43:03.976Z,98613.81
2022-10-22T21:50:18.617Z,98610.41
2022-10-22T21:52:45.221Z,98616.53
2022-10-22T21:55:11.701Z,98621.84
2022-10-22T21:57:38.232Z,98624.75
2022-10-22T22:00:07.374Z,98627.25
2022-10-22T22:02:34.317Z,98624.63
2022-10-22T22:05:00.853Z,98622.81
2022-10-22T22:07:27.453Z,98631.59
2022-10-22T22:09:53.977Z,98628.09
2022-10-22T22:12:21.170Z,98622.81
2022-10-22T22:14:47.833Z,98635.22
2022-10-22T22:17:16.405Z,98629.09
2022-10-22T22:19:42.944Z,98638.69
2022-10-22T22:22:09.561Z,98640.50
2022-10-22T22:24:37.624Z,98627.88
2022-10-22T22:27:04.337Z,98644.97
2022-10-22T22:29:30.823Z,98648.47
2022-10-22T22:31:57.461Z,98646.63
2022-10-22T22:34:23.992Z,98653.75
2022-10-22T22:36:50.594Z,98656.41
2022-10-22T22:39:21.257Z,98644.97
2022-10-22T22:41:47.987Z,98652.94
2022-10-22T22:44:15.459Z,98647.63
2022-10-22T22:46:42.487Z,98635.06
2022-10-22T22:49:09.538Z,98655.56
2022-10-22T22:51:36.261Z,98655.91
2022-10-22T22:54:02.879Z,98657.38
2022-10-22T22:56:31.723Z,98649.88
2022-10-22T22:58:58.564Z,98656.53
2022-10-22T23:01:37.379Z,98667.13
2022-10-22T23:04:11.652Z,98660.13
2022-10-22T23:06:39.502Z,98654.84
2022-10-22T23:09:09.318Z,98659.19
2022-10-22T23:11:36.361Z,98660.97
2022-10-22T23:14:04.935Z,98668.09
2022-10-22T23:16:33.924Z,98667.13
2022-10-22T23:19:01.166Z,98671.56
2022-10-22T23:21:32.902Z,98655.78
2022-10-22T23:24:01.981Z,98676.03
2022-10-22T23:26:31.753Z,98679.50
2022-10-22T23:29:02.865Z,98663.25
2022-10-22T23:31:29.847Z,98673.50
2022-10-22T23:33:56.408Z,98675.19
2022-10-22T23:36:23.161Z,98674.34
2022-10-22T23:38:50.287Z,98683.16
2022-10-22T23:41:17.471Z,98683.97
2022-10-22T23:43:44.049Z,98683.16
2022-10-22T23:46:12.862Z,98679.63
2022-10-22T23:48:40.173Z,98689.28
2022-10-22T23:51:12.252Z,98697.34
2022-10-22T23:53:39.119Z,98696.47
2022-10-22T23:56:11.117Z,98692.88
2022-10-22T23:58:39.550Z,98696.47
